Kununurra, Western Australia

8:06 PM AWST on September 23, 2014 (GMT +0800)
Kununurra | Change Station
CLOSE
Current Station
Airport
Location: Kununurra,
Elevation: 144 ft
Nearby Weather Stations

Elev 144 ft 15.78 °S, 128.71 °E | Updated 6 minutes ago

Clear
Clear
81 °F
Feels Like 85 °F
N
8
Wind Variable Wind from North

Today
High -- | Low -- °F
--% Chance of Precip.
Yesterday
High -- | Low -- °F
Precip. -- in
5:14 AM 5:21 PM
Waning Crescent, 1% visible
Pressure 29.92 in
Visibility 6.2 miles
Clouds
Heat Index 85 °F
Dew Point 72 °F
Humidity 74%
Rainfall 0.00 in
Snow Depth 0 in , 0 in , 0 in
UV Not available.
Pollen Not available.
Air Quality Not available.
Flu Activity Not available.
METAR YPKU 231200Z AUTO 01007KT 9999 // NCD 27/22 Q1013

More Conditions Fewer Conditions

Pressure 29.92 in
Visibility 6.2 miles
Clouds
Heat Index 85 °F
Dew Point 72 °F
Humidity 74%
Rainfall 0.00 in
Snow Depth 0 in , 0 in , 0 in
UV Not available.
Pollen Not available.
Air Quality Not available.
Flu Activity Not available.
METAR YPKU 231200Z AUTO 01007KT 9999 // NCD 27/22 Q1013

More Conditions Fewer Conditions

10-Day Weather Forecast

Almanac

Astronomy

Sep. 23, 2014 Rise Set
Actual Time 5:14 AM AWST 5:21 PM AWST
Civil Twilight 4:52 AM AWST 5:42 PM AWST
Nautical Twilight 4:28 AM AWST 6:07 PM AWST
Astronomical Twilight 4:03 AM AWST 6:32 PM AWST
Moon 4:19 AM AWST 4:34 PM AWST
Length of Visible Light 12h 49m
Length of Day
12h 06m
Tomorrow will be 0m 53s longer.
Waning Crescent, 1% of the Moon is Illuminated
Today
Waning Crescent
Sep 24
New
Oct 1
First Quarter
Oct 8
Full
Oct 15
Last Quarter

Yesterday's Extremes

Country Highs Country Lows

Community

WunderPhotos

Upload Photos

1,755,656 photos uploaded!

WunderBlogs® & News

By Dr. Jeff Masters
Director of Meteorology, Weather Underground
By Kari Strenfel
Meteorologist, Weather Underground
By Christopher C. Burt
Weather Historian, Weather Underground
September 23, 2014
September 23, 2014
September 23, 2014

Nearby

Snow Depth

Not available.

Earthquake Activity

City Distance Mag. Time & Date
No recent earthquake activity has been reported nearby.
Minimum magnitude displayed is 2.5.

Coastal Water Temperatures

Place Temperature
No Stations Reporting

Nearby Weather Stations